createdAt,value
2022-09-06T00:01:46.359Z,100979.50
2022-09-06T00:04:34.525Z,100986.63
2022-09-06T00:10:23.402Z,100994.31
2022-09-06T00:13:11.163Z,100980.81
2022-09-06T00:15:59.458Z,100982.06
2022-09-06T00:18:41.125Z,100968.19
2022-09-06T00:21:33.435Z,100976.16
2022-09-06T00:24:15.831Z,100983.31
2022-09-06T00:27:02.552Z,100983.84
2022-09-06T00:29:44.511Z,100975.91
2022-09-06T00:32:31.423Z,100982.72
2022-09-06T00:35:14.976Z,100974.44
2022-09-06T00:38:07.013Z,100969.13
2022-09-06T00:40:49.293Z,100976.97
2022-09-06T00:43:37.653Z,100968.38
2022-09-06T00:46:26.362Z,100965.44
2022-09-06T00:49:24.455Z,100963.91
2022-09-06T00:52:14.301Z,100957.56
2022-09-06T00:55:02.423Z,100962.06
2022-09-06T00:57:43.510Z,100960.41
2022-09-06T01:00:32.724Z,100968.44
2022-09-06T01:03:16.364Z,100959.94
2022-09-06T01:06:13.493Z,100958.28
2022-09-06T01:09:13.748Z,100959.44
2022-09-06T01:12:25.628Z,100954.38
2022-09-06T01:15:42.357Z,100960.91
2022-09-06T01:19:17.440Z,100957.00
2022-09-06T01:22:46.803Z,100958.69
2022-09-06T01:26:02.464Z,100961.38
2022-09-06T01:28:57.497Z,100966.59
2022-09-06T01:31:59.472Z,100965.81
2022-09-06T01:34:49.772Z,100964.09
2022-09-06T01:37:37.490Z,100974.75
2022-09-06T01:40:20.744Z,100975.47
2022-09-06T01:43:11.536Z,100974.56
2022-09-06T01:46:05.200Z,100984.53
2022-09-06T01:49:29.346Z,100979.22
2022-09-06T01:52:38.055Z,100986.22
2022-09-06T01:55:37.494Z,100971.66
2022-09-06T01:58:46.364Z,100974.41
2022-09-06T02:01:47.328Z,100960.97
2022-09-06T02:04:53.363Z,100945.94
2022-09-06T02:07:40.472Z,100932.56
2022-09-06T02:10:39.011Z,100928.38
2022-09-06T02:13:23.628Z,100941.63
2022-09-06T02:16:14.604Z,100944.56
2022-09-06T02:19:07.468Z,100944.38
2022-09-06T02:21:58.391Z,100955.09
2022-09-06T02:24:42.940Z,100955.91
2022-09-06T02:30:31.589Z,100958.59
2022-09-06T02:33:26.933Z,100960.41
2022-09-06T02:36:14.619Z,100956.72
2022-09-06T02:39:03.410Z,100957.06
2022-09-06T02:41:46.534Z,100958.72
2022-09-06T02:44:34.774Z,100964.09
2022-09-06T02:47:15.523Z,100966.88
2022-09-06T02:50:10.536Z,100969.59
2022-09-06T02:53:10.511Z,100976.44
2022-09-06T02:55:54.476Z,100969.38
2022-09-06T02:58:44.528Z,100964.09
2022-09-06T03:01:26.297Z,100961.53
2022-09-06T03:04:14.508Z,100968.81
2022-09-06T03:06:56.293Z,100963.38
2022-09-06T03:09:46.306Z,100970.22
2022-09-06T03:12:28.682Z,100979.09
2022-09-06T03:15:15.505Z,100965.88
2022-09-06T03:17:56.448Z,100971.19
2022-09-06T03:20:44.527Z,100963.19
2022-09-06T03:23:26.936Z,100968.59
2022-09-06T03:26:14.479Z,100964.19
2022-09-06T03:28:56.765Z,100961.50
2022-09-06T03:31:43.523Z,100957.19
2022-09-06T03:34:25.596Z,100957.09
2022-09-06T03:37:12.513Z,100951.81
2022-09-06T03:39:53.863Z,100944.63
2022-09-06T03:42:48.723Z,100954.28
2022-09-06T03:45:29.942Z,100956.06
2022-09-06T03:48:24.431Z,100953.41
2022-09-06T03:51:12.534Z,100948.44
2022-09-06T03:53:55.662Z,100954.31
2022-09-06T03:56:44.022Z,100947.97
2022-09-06T03:59:24.548Z,100959.63
2022-09-06T04:02:13.469Z,100963.09
2022-09-06T04:04:55.697Z,100954.06
2022-09-06T04:07:45.517Z,100950.53
2022-09-06T04:10:26.535Z,100941.66
2022-09-06T04:13:14.854Z,100945.06
2022-09-06T04:15:56.578Z,100941.59
2022-09-06T04:18:45.294Z,100938.97
2022-09-06T04:21:26.595Z,100940.88
2022-09-06T04:24:16.419Z,100932.00
2022-09-06T04:26:57.968Z,100945.09
2022-09-06T04:29:45.463Z,100950.31
2022-09-06T04:32:26.533Z,100958.84
2022-09-06T04:35:15.653Z,100947.56
2022-09-06T04:37:56.717Z,100945.91
2022-09-06T04:40:45.439Z,100938.03
2022-09-06T04:43:27.544Z,100942.56
2022-09-06T04:46:23.247Z,100943.41
2022-09-06T04:49:11.576Z,100942.13
2022-09-06T04:51:52.445Z,100940.59
2022-09-06T04:54:41.578Z,100937.00
2022-09-06T04:57:23.731Z,100946.72
2022-09-06T05:00:11.763Z,100931.50
2022-09-06T05:02:52.441Z,100918.38
2022-09-06T05:05:41.611Z,100927.22
2022-09-06T05:08:24.499Z,100938.63
2022-09-06T05:11:12.582Z,100940.56
2022-09-06T05:13:54.463Z,100928.19
2022-09-06T05:16:41.931Z,100918.34
2022-09-06T05:19:23.482Z,100914.97
2022-09-06T05:22:11.476Z,100914.22
2022-09-06T05:28:02.578Z,100914.22
2022-09-06T05:30:46.192Z,100906.88
2022-09-06T05:33:34.266Z,100907.00
2022-09-06T05:36:15.462Z,100914.19
2022-09-06T05:39:03.632Z,100914.91
2022-09-06T05:41:46.031Z,100917.22
2022-09-06T05:44:33.928Z,100928.13
2022-09-06T05:47:15.729Z,100924.69
2022-09-06T05:50:03.638Z,100919.13
2022-09-06T05:52:46.511Z,100935.00
2022-09-06T05:55:35.066Z,100931.22
2022-09-06T05:58:19.198Z,100941.81
2022-09-06T06:01:37.743Z,100949.16
2022-09-06T06:04:21.333Z,100956.94
2022-09-06T06:07:10.018Z,100952.75
2022-09-06T06:09:51.536Z,100953.53
2022-09-06T06:12:42.087Z,100955.19
2022-09-06T06:15:22.511Z,100945.91
2022-09-06T06:18:10.550Z,100941.66
2022-09-06T06:20:51.493Z,100935.50
2022-09-06T06:23:39.711Z,100949.41
2022-09-06T06:26:22.883Z,100933.31
2022-09-06T06:29:10.676Z,100939.50
2022-09-06T06:31:52.587Z,100946.75
2022-09-06T06:34:42.948Z,100939.63
2022-09-06T06:37:23.895Z,100929.75
2022-09-06T06:40:10.804Z,100922.72
2022-09-06T06:42:51.577Z,100927.59
2022-09-06T06:45:42.046Z,100929.16
2022-09-06T06:48:36.511Z,100932.13
2022-09-06T06:51:26.038Z,100929.81
2022-09-06T06:54:06.544Z,100917.88
2022-09-06T06:56:55.629Z,100930.91
2022-09-06T06:59:37.275Z,100920.50
2022-09-06T07:02:24.731Z,100918.09
2022-09-06T07:08:13.643Z,100894.78
2022-09-06T07:10:54.534Z,100898.78
2022-09-06T07:13:42.025Z,100896.41
2022-09-06T07:16:27.715Z,100898.75
2022-09-06T07:22:16.527Z,100897.19
2022-09-06T07:25:06.139Z,100896.19
2022-09-06T07:27:48.966Z,100895.34
2022-09-06T07:30:43.668Z,100897.59
2022-09-06T07:33:25.640Z,100910.41
2022-09-06T07:36:15.094Z,100919.69
2022-09-06T07:38:57.289Z,100909.19
2022-09-06T07:41:46.663Z,100911.13
2022-09-06T07:44:28.915Z,100917.63
2022-09-06T07:53:31.085Z,100909.16
2022-09-06T07:56:20.575Z,100906.84
2022-09-06T07:59:02.121Z,100911.50
2022-09-06T08:01:48.602Z,100910.81
2022-09-06T08:04:29.707Z,100913.81
2022-09-06T08:07:39.542Z,100913.28
2022-09-06T08:10:21.463Z,100915.16
2022-09-06T08:13:09.560Z,100922.44
2022-09-06T08:15:50.725Z,100925.19
2022-09-06T08:18:38.290Z,100919.41
2022-09-06T08:21:23.720Z,100927.31
2022-09-06T08:24:13.570Z,100939.84
2022-09-06T08:26:54.687Z,100947.13
2022-09-06T08:29:42.982Z,100941.13
2022-09-06T08:32:24.333Z,100945.84
2022-09-06T08:35:11.956Z,100936.31
2022-09-06T08:37:54.688Z,100914.97
2022-09-06T08:40:46.356Z,100939.97
2022-09-06T08:43:29.772Z,100947.00
2022-09-06T08:46:17.822Z,100948.75
2022-09-06T08:49:12.592Z,100952.97
2022-09-06T08:52:25.604Z,100948.50
2022-09-06T08:55:21.265Z,100960.00
2022-09-06T08:58:27.808Z,100940.78
2022-09-06T09:01:12.800Z,100916.97
2022-09-06T09:04:05.588Z,100914.22
2022-09-06T09:06:46.799Z,100928.50
2022-09-06T09:09:37.871Z,100938.19
2022-09-06T09:12:21.707Z,100930.03
2022-09-06T09:15:15.978Z,100926.28
2022-09-06T09:17:59.880Z,100933.66
2022-09-06T09:20:48.411Z,100931.16
2022-09-06T09:23:30.250Z,100935.56
2022-09-06T09:26:25.949Z,100930.22
2022-09-06T09:29:12.527Z,100950.22
2022-09-06T09:32:01.689Z,100953.88
2022-09-06T09:34:45.722Z,100951.22
2022-09-06T09:37:51.268Z,100940.72
2022-09-06T09:40:40.219Z,100948.53
2022-09-06T09:43:28.971Z,100944.28
2022-09-06T09:46:33.172Z,100953.53
2022-09-06T09:49:36.350Z,100959.59
2022-09-06T09:52:21.080Z,100959.19
2022-09-06T09:55:12.749Z,100948.16
2022-09-06T09:57:56.328Z,100959.69
2022-09-06T10:00:54.849Z,100955.31
2022-09-06T10:09:56.732Z,100943.13
2022-09-06T10:12:41.733Z,100945.78
2022-09-06T10:15:43.591Z,100957.47
2022-09-06T10:18:30.150Z,100964.63
2022-09-06T10:21:24.228Z,100963.75
2022-09-06T10:27:12.827Z,100962.31
2022-09-06T10:30:04.086Z,100958.91
2022-09-06T10:33:25.766Z,100960.88
2022-09-06T10:36:09.703Z,100947.72
2022-09-06T10:39:04.334Z,100958.31
2022-09-06T10:42:09.812Z,100954.75
2022-09-06T10:45:23.727Z,100953.88
2022-09-06T10:48:30.830Z,100949.56
2022-09-06T10:51:40.834Z,100953.53
2022-09-06T10:54:26.640Z,100949.00
2022-09-06T11:00:51.089Z,100940.53
2022-09-06T11:03:57.092Z,100943.31
2022-09-06T11:06:49.743Z,100947.50
2022-09-06T11:09:47.075Z,100937.44
2022-09-06T11:12:50.885Z,100933.06
2022-09-06T11:16:09.044Z,100944.06
2022-09-06T11:18:54.178Z,100941.19
2022-09-06T11:22:05.883Z,100939.44
2022-09-06T11:24:50.680Z,100919.50
2022-09-06T11:27:48.315Z,100908.50
2022-09-06T11:30:33.335Z,100903.69
2022-09-06T11:33:40.110Z,100909.31
2022-09-06T11:36:52.809Z,100917.19
2022-09-06T11:43:09.125Z,100903.50
2022-09-06T11:45:58.807Z,100888.53
2022-09-06T11:49:14.771Z,100891.94
2022-09-06T11:52:07.330Z,100882.00
2022-09-06T11:54:55.195Z,100890.38
2022-09-06T11:57:41.865Z,100897.44
2022-09-06T12:00:30.664Z,100885.81
2022-09-06T12:04:07.356Z,100884.97
2022-09-06T12:07:11.084Z,100879.31
2022-09-06T12:09:58.784Z,100874.25
2022-09-06T12:12:50.259Z,100874.03
2022-09-06T12:15:59.989Z,100881.22
2022-09-06T12:18:50.192Z,100877.81
2022-09-06T12:21:52.037Z,100873.53
2022-09-06T12:24:41.933Z,100870.75
2022-09-06T12:27:31.839Z,100867.91
2022-09-06T12:30:18.776Z,100858.16
2022-09-06T12:33:10.501Z,100855.03
2022-09-06T12:35:56.340Z,100863.53
2022-09-06T12:38:45.172Z,100857.41
2022-09-06T12:41:25.707Z,100865.16
2022-09-06T12:44:14.826Z,100841.09
2022-09-06T12:46:58.490Z,100846.13
2022-09-06T12:49:53.714Z,100861.03
2022-09-06T12:52:55.578Z,100845.69
2022-09-06T12:55:44.822Z,100853.53
2022-09-06T12:58:36.073Z,100871.53
2022-09-06T13:01:27.926Z,100866.31
2022-09-06T13:04:28.205Z,100864.41
2022-09-06T13:07:10.847Z,100868.53
2022-09-06T13:10:02.366Z,100846.03
2022-09-06T13:12:49.081Z,100857.03
2022-09-06T13:15:40.104Z,100836.69
2022-09-06T13:18:41.803Z,100857.50
2022-09-06T13:21:39.824Z,100858.03
2022-09-06T13:24:32.931Z,100866.28
2022-09-06T13:27:42.781Z,100857.88
2022-09-06T13:30:49.537Z,100850.66
2022-09-06T13:33:36.823Z,100857.75
2022-09-06T13:36:17.335Z,100845.06
2022-09-06T13:39:08.003Z,100839.44
2022-09-06T13:42:13.738Z,100827.75
2022-09-06T13:45:02.298Z,100826.84
2022-09-06T13:47:43.863Z,100818.44
2022-09-06T13:50:34.816Z,100812.25
2022-09-06T13:53:15.873Z,100821.19
2022-09-06T13:56:03.736Z,100808.72
2022-09-06T13:58:45.747Z,100808.69
2022-09-06T14:01:36.922Z,100814.81
2022-09-06T14:04:25.594Z,100813.66
2022-09-06T14:07:16.614Z,100799.34
2022-09-06T14:09:58.325Z,100812.50
2022-09-06T14:12:49.191Z,100815.06
2022-09-06T14:15:30.043Z,100821.13
2022-09-06T14:18:17.763Z,100813.81
2022-09-06T14:21:00.344Z,100811.09
2022-09-06T14:23:47.754Z,100811.09
2022-09-06T14:26:28.887Z,100825.03
2022-09-06T14:29:18.009Z,100822.16
2022-09-06T14:31:58.981Z,100819.50
2022-09-06T14:34:47.678Z,100819.50
2022-09-06T14:37:28.875Z,100822.50
2022-09-06T14:40:17.782Z,100822.91
2022-09-06T14:42:59.258Z,100817.81
2022-09-06T14:45:46.595Z,100802.72
2022-09-06T14:48:30.330Z,100816.69
2022-09-06T14:51:21.943Z,100817.44
2022-09-06T14:54:12.188Z,100809.38
2022-09-06T14:57:03.138Z,100811.72
2022-09-06T14:59:43.962Z,100801.69
2022-09-06T15:02:33.107Z,100829.00
2022-09-06T15:05:14.819Z,100825.31
2022-09-06T15:08:03.943Z,100815.56
2022-09-06T15:10:46.005Z,100819.69
2022-09-06T15:13:35.287Z,100809.06
2022-09-06T15:16:17.024Z,100804.69
2022-09-06T15:19:05.775Z,100802.28
2022-09-06T15:21:47.928Z,100804.03
2022-09-06T15:24:35.806Z,100804.59
2022-09-06T15:27:18.930Z,100803.81
2022-09-06T15:30:12.583Z,100801.22
2022-09-06T15:32:54.938Z,100791.63
2022-09-06T15:35:42.770Z,100786.88
2022-09-06T15:38:24.127Z,100786.41
2022-09-06T15:41:15.533Z,100789.03
2022-09-06T15:44:00.979Z,100781.94
2022-09-06T15:47:00.020Z,100786.66
2022-09-06T15:49:47.397Z,100767.56
2022-09-06T15:52:27.909Z,100767.28
2022-09-06T15:55:39.835Z,100783.47
2022-09-06T15:58:23.243Z,100783.41
2022-09-06T16:01:14.039Z,100783.81
2022-09-06T16:03:57.046Z,100792.72
2022-09-06T16:06:46.944Z,100783.81
2022-09-06T16:09:27.838Z,100765.88
2022-09-06T16:12:16.207Z,100760.00
2022-09-06T16:14:58.245Z,100752.56
2022-09-06T16:17:46.219Z,100749.81
2022-09-06T16:20:31.664Z,100753.59
2022-09-06T16:23:21.526Z,100746.38
2022-09-06T16:26:01.822Z,100744.16
2022-09-06T16:28:55.020Z,100732.53
2022-09-06T16:31:40.295Z,100743.88
2022-09-06T16:34:31.137Z,100737.34
2022-09-06T16:37:15.867Z,100751.94
2022-09-06T16:40:04.077Z,100751.91
2022-09-06T16:42:45.944Z,100745.41
2022-09-06T16:45:33.124Z,100755.41
2022-09-06T16:48:14.923Z,100758.16
2022-09-06T16:51:10.863Z,100766.22
2022-09-06T16:53:58.954Z,100771.31
2022-09-06T16:56:40.491Z,100763.00
2022-09-06T16:59:30.419Z,100765.03
2022-09-06T17:02:11.069Z,100758.06
2022-09-06T17:04:57.831Z,100757.84
2022-09-06T17:07:39.931Z,100766.53
2022-09-06T17:10:27.276Z,100763.81
2022-09-06T17:13:08.175Z,100759.44
2022-09-06T17:16:22.427Z,100749.53
2022-09-06T17:19:03.115Z,100749.66
2022-09-06T17:21:50.946Z,100747.53
2022-09-06T17:24:31.968Z,100749.25
2022-09-06T17:27:20.893Z,100747.31
2022-09-06T17:30:04.127Z,100755.13
2022-09-06T17:32:54.387Z,100753.53
2022-09-06T17:35:34.992Z,100757.78
2022-09-06T17:38:24.306Z,100760.53
2022-09-06T17:41:06.867Z,100754.44
2022-09-06T17:43:56.492Z,100756.34
2022-09-06T17:46:38.957Z,100750.25
2022-09-06T17:49:38.921Z,100744.34
2022-09-06T17:52:28.098Z,100755.19
2022-09-06T17:55:09.946Z,100730.38
2022-09-06T17:57:57.019Z,100753.50
2022-09-06T18:00:39.456Z,100750.81
2022-09-06T18:03:26.866Z,100749.06
2022-09-06T18:06:15.361Z,100744.03
2022-09-06T18:09:05.035Z,100748.09
2022-09-06T18:11:48.078Z,100750.69
2022-09-06T18:14:37.027Z,100747.03
2022-09-06T18:17:18.922Z,100748.81
2022-09-06T18:20:06.203Z,100754.53
2022-09-06T18:22:47.283Z,100756.44
2022-09-06T18:25:37.181Z,100762.25
2022-09-06T18:28:18.032Z,100756.28
2022-09-06T18:31:05.995Z,100758.22
2022-09-06T18:33:48.277Z,100759.41
2022-09-06T18:36:38.833Z,100760.28
2022-09-06T18:39:21.419Z,100762.13
2022-09-06T18:42:11.428Z,100764.66
2022-09-06T18:44:55.346Z,100760.13
2022-09-06T18:47:44.645Z,100766.38
2022-09-06T18:50:44.494Z,100769.13
2022-09-06T18:53:31.201Z,100764.13
2022-09-06T18:56:12.909Z,100766.09
2022-09-06T18:59:07.234Z,100759.72
2022-09-06T19:01:51.124Z,100771.25
2022-09-06T19:04:38.175Z,100777.03
2022-09-06T19:07:19.367Z,100777.03
2022-09-06T19:10:08.378Z,100780.63
2022-09-06T19:12:53.219Z,100793.81
2022-09-06T19:15:41.216Z,100791.16
2022-09-06T19:18:22.388Z,100785.13
2022-09-06T19:21:13.139Z,100786.25
2022-09-06T19:24:00.970Z,100788.16
2022-09-06T19:26:50.128Z,100797.78
2022-09-06T19:29:30.952Z,100792.72
2022-09-06T19:32:22.353Z,100807.72
2022-09-06T19:35:02.947Z,100804.94
2022-09-06T19:37:50.074Z,100807.88
2022-09-06T19:40:30.936Z,100801.78
2022-09-06T19:43:22.066Z,100808.97
2022-09-06T19:46:02.940Z,100795.75
2022-09-06T19:48:54.215Z,100808.84
2022-09-06T19:51:41.943Z,100811.63
2022-09-06T19:54:24.696Z,100807.47
2022-09-06T19:57:13.970Z,100810.28
2022-09-06T19:59:55.096Z,100821.63
2022-09-06T20:02:52.726Z,100810.25
2022-09-06T20:05:36.967Z,100811.97
2022-09-06T20:08:25.348Z,100803.34
2022-09-06T20:11:07.112Z,100808.75
2022-09-06T20:13:56.329Z,100809.84
2022-09-06T20:16:41.347Z,100805.66
2022-09-06T20:19:31.747Z,100809.97
2022-09-06T20:22:13.299Z,100811.75
2022-09-06T20:25:04.301Z,100809.19
2022-09-06T20:27:45.550Z,100810.69
2022-09-06T20:30:34.711Z,100813.25
2022-09-06T20:33:17.446Z,100801.19
2022-09-06T20:36:12.392Z,100811.97
2022-09-06T20:38:55.940Z,100800.41
2022-09-06T20:41:53.107Z,100810.00
2022-09-06T20:44:43.112Z,100797.03
2022-09-06T20:47:24.361Z,100800.69
2022-09-06T20:50:22.983Z,100801.47
2022-09-06T20:53:11.629Z,100806.78
2022-09-06T20:55:52.119Z,100802.53
2022-09-06T20:58:42.010Z,100799.78
2022-09-06T21:01:29.021Z,100798.13
2022-09-06T21:04:17.105Z,100791.00
2022-09-06T21:06:58.131Z,100796.28
2022-09-06T21:09:45.990Z,100779.41
2022-09-06T21:12:27.903Z,100786.38
2022-09-06T21:15:14.998Z,100784.63
2022-09-06T21:17:56.866Z,100784.78
2022-09-06T21:20:45.005Z,100780.56
2022-09-06T21:23:28.607Z,100787.31
2022-09-06T21:26:20.816Z,100782.16
2022-09-06T21:29:02.161Z,100789.28
2022-09-06T21:31:50.029Z,100784.84
2022-09-06T21:34:33.375Z,100782.34
2022-09-06T21:37:24.123Z,100781.09
2022-09-06T21:40:05.187Z,100780.31
2022-09-06T21:42:53.141Z,100776.69
2022-09-06T21:45:39.256Z,100768.94
2022-09-06T21:48:32.150Z,100777.56
2022-09-06T21:51:28.007Z,100776.00
2022-09-06T21:54:17.073Z,100769.00
2022-09-06T21:56:58.674Z,100789.19
2022-09-06T21:59:47.094Z,100784.81
2022-09-06T22:02:28.219Z,100774.91
2022-09-06T22:05:17.088Z,100784.53
2022-09-06T22:07:59.352Z,100779.16
2022-09-06T22:10:46.980Z,100773.13
2022-09-06T22:13:28.134Z,100784.59
2022-09-06T22:16:16.090Z,100771.84
2022-09-06T22:18:57.165Z,100774.75
2022-09-06T22:21:47.259Z,100764.03
2022-09-06T22:24:28.181Z,100779.16
2022-09-06T22:27:16.068Z,100775.66
2022-09-06T22:29:58.546Z,100780.28
2022-09-06T22:32:47.133Z,100771.31
2022-09-06T22:35:30.474Z,100775.53
2022-09-06T22:38:19.105Z,100775.84
2022-09-06T22:41:00.223Z,100777.56
2022-09-06T22:43:48.166Z,100775.94
2022-09-06T22:46:29.201Z,100772.50
2022-09-06T22:49:17.160Z,100774.38
2022-09-06T22:52:11.074Z,100773.56
2022-09-06T22:54:59.838Z,100771.44
2022-09-06T22:57:41.177Z,100767.38
2022-09-06T23:00:29.520Z,100767.16
2022-09-06T23:03:10.587Z,100759.97
2022-09-06T23:06:06.436Z,100757.69
2022-09-06T23:08:47.240Z,100751.38
2022-09-06T23:11:39.502Z,100740.91
2022-09-06T23:14:21.532Z,100744.88
2022-09-06T23:17:10.554Z,100747.78
2022-09-06T23:19:53.460Z,100744.47
2022-09-06T23:22:40.516Z,100737.25
2022-09-06T23:25:21.326Z,100740.94
2022-09-06T23:28:09.066Z,100740.06
2022-09-06T23:30:50.184Z,100737.34
2022-09-06T23:33:38.464Z,100739.50
2022-09-06T23:36:22.099Z,100730.88
2022-09-06T23:39:09.089Z,100735.13
2022-09-06T23:41:50.277Z,100741.31
2022-09-06T23:44:39.835Z,100731.63
2022-09-06T23:47:21.213Z,100737.91
2022-09-06T23:50:17.702Z,100718.53
2022-09-06T23:53:04.231Z,100721.09
2022-09-06T23:55:45.340Z,100717.72
2022-09-06T23:58:32.628Z,100720.22
